Terminal Aerodrome Forecast
Issued by NWS

Current Version | Previous Version | Graphics & Text | Print | Product List | Glossary On
Versions: 1 2 3 4 5 6 7 8 9 10 11 12 13 14 15 16 17 18 19 20 21 22 23
000
FTUS41 KILN 250700 AAA
TAFLUK
TAF AMD
KLUK 250702Z 2507/2606 24011KT P6SM BKN018 OVC025
      TEMPO 2507/2508 -RASN
     FM251300 23011KT P6SM OVC025
     FM252000 22010KT P6SM OVC035
     FM252300 20004KT P6SM SKC=

USA.gov is the U.S. government's official web portal to all federal, state and local government web resources and services.